sensor_id;sensor_type;location;lat;lon;timestamp;temperature;humidity
28071;DHT22;15383;48.408;9.968;2023-04-20T00:01:53;20.10;78.40
28071;DHT22;15383;48.408;9.968;2023-04-20T00:04:19;20.10;78.40
28071;DHT22;15383;48.408;9.968;2023-04-20T00:06:44;20.00;78.30
28071;DHT22;15383;48.408;9.968;2023-04-20T00:09:12;20.00;78.30
28071;DHT22;15383;48.408;9.968;2023-04-20T00:11:38;20.00;78.40
28071;DHT22;15383;48.408;9.968;2023-04-20T00:14:04;20.00;78.30
28071;DHT22;15383;48.408;9.968;2023-04-20T00:16:29;20.00;78.40
28071;DHT22;15383;48.408;9.968;2023-04-20T00:18:55;20.00;78.40
28071;DHT22;15383;48.408;9.968;2023-04-20T00:21:21;20.00;78.40
28071;DHT22;15383;48.408;9.968;2023-04-20T00:23:49;20.00;78.50
28071;DHT22;15383;48.408;9.968;2023-04-20T00:26:14;20.00;78.50
28071;DHT22;15383;48.408;9.968;2023-04-20T00:28:41;20.00;78.50
28071;DHT22;15383;48.408;9.968;2023-04-20T00:31:07;20.00;78.40
28071;DHT22;15383;48.408;9.968;2023-04-20T00:33:32;20.00;78.50
28071;DHT22;15383;48.408;9.968;2023-04-20T00:35:58;20.00;78.50
28071;DHT22;15383;48.408;9.968;2023-04-20T00:38:23;20.00;78.40
28071;DHT22;15383;48.408;9.968;2023-04-20T00:40:49;19.90;79.20
28071;DHT22;15383;48.408;9.968;2023-04-20T00:43:18;19.90;78.40
28071;DHT22;15383;48.408;9.968;2023-04-20T00:45:45;19.90;78.40
28071;DHT22;15383;48.408;9.968;2023-04-20T00:48:11;19.90;78.40
28071;DHT22;15383;48.408;9.968;2023-04-20T00:50:38;19.90;78.40
28071;DHT22;15383;48.408;9.968;2023-04-20T00:53:05;19.90;78.40
28071;DHT22;15383;48.408;9.968;2023-04-20T00:55:31;19.90;78.40
28071;DHT22;15383;48.408;9.968;2023-04-20T00:57:57;19.90;78.50
28071;DHT22;15383;48.408;9.968;2023-04-20T01:00:24;19.90;78.40
28071;DHT22;15383;48.408;9.968;2023-04-20T01:02:49;19.90;78.50
28071;DHT22;15383;48.408;9.968;2023-04-20T01:05:15;19.90;78.40
28071;DHT22;15383;48.408;9.968;2023-04-20T01:07:41;19.90;79.20
28071;DHT22;15383;48.408;9.968;2023-04-20T01:10:07;19.90;78.40
28071;DHT22;15383;48.408;9.968;2023-04-20T01:12:33;19.90;78.40
28071;DHT22;15383;48.408;9.968;2023-04-20T01:15:00;19.80;78.40
28071;DHT22;15383;48.408;9.968;2023-04-20T01:17:26;19.90;78.40
28071;DHT22;15383;48.408;9.968;2023-04-20T01:19:52;19.80;78.40
28071;DHT22;15383;48.408;9.968;2023-04-20T01:22:18;19.80;78.30
28071;DHT22;15383;48.408;9.968;2023-04-20T01:24:45;19.80;78.40
28071;DHT22;15383;48.408;9.968;2023-04-20T01:27:11;19.80;78.40
28071;DHT22;15383;48.408;9.968;2023-04-20T01:29:38;19.80;78.40
28071;DHT22;15383;48.408;9.968;2023-04-20T01:32:04;19.80;78.40
28071;DHT22;15383;48.408;9.968;2023-04-20T01:34:30;19.80;78.40
28071;DHT22;15383;48.408;9.968;2023-04-20T01:36:56;19.80;78.40
28071;DHT22;15383;48.408;9.968;2023-04-20T01:39:21;19.80;78.50
28071;DHT22;15383;48.408;9.968;2023-04-20T01:41:47;19.80;78.40
28071;DHT22;15383;48.408;9.968;2023-04-20T01:44:12;19.80;78.50
28071;DHT22;15383;48.408;9.968;2023-04-20T01:46:39;19.80;78.40
28071;DHT22;15383;48.408;9.968;2023-04-20T01:49:05;19.80;78.40
28071;DHT22;15383;48.408;9.968;2023-04-20T01:51:32;19.80;78.40
28071;DHT22;15383;48.408;9.968;2023-04-20T01:53:59;19.80;78.50
28071;DHT22;15383;48.408;9.968;2023-04-20T01:56:24;19.70;78.40
28071;DHT22;15383;48.408;9.968;2023-04-20T01:58:50;19.70;78.50
28071;DHT22;15383;48.408;9.968;2023-04-20T02:01:16;19.70;78.40
28071;DHT22;15383;48.408;9.968;2023-04-20T02:03:41;19.70;78.50
28071;DHT22;15383;48.408;9.968;2023-04-20T02:06:07;19.70;78.40
28071;DHT22;15383;48.408;9.968;2023-04-20T02:08:33;19.70;78.40
28071;DHT22;15383;48.408;9.968;2023-04-20T02:10:59;19.70;78.40
28071;DHT22;15383;48.408;9.968;2023-04-20T02:13:24;19.70;78.50
28071;DHT22;15383;48.408;9.968;2023-04-20T02:15:50;19.70;78.50
28071;DHT22;15383;48.408;9.968;2023-04-20T02:18:16;19.70;78.40
28071;DHT22;15383;48.408;9.968;2023-04-20T02:20:42;19.70;78.50
28071;DHT22;15383;48.408;9.968;2023-04-20T02:23:08;19.70;78.50
28071;DHT22;15383;48.408;9.968;2023-04-20T02:25:34;19.70;78.50
28071;DHT22;15383;48.408;9.968;2023-04-20T02:27:59;19.70;78.50
28071;DHT22;15383;48.408;9.968;2023-04-20T02:30:25;19.70;78.50
28071;DHT22;15383;48.408;9.968;2023-04-20T02:32:51;19.70;78.50
28071;DHT22;15383;48.408;9.968;2023-04-20T02:35:17;19.60;78.50
28071;DHT22;15383;48.408;9.968;2023-04-20T02:37:43;19.60;78.60
28071;DHT22;15383;48.408;9.968;2023-04-20T02:40:09;19.70;78.60
28071;DHT22;15383;48.408;9.968;2023-04-20T02:42:34;19.60;78.50
28071;DHT22;15383;48.408;9.968;2023-04-20T02:45:00;19.60;78.50
28071;DHT22;15383;48.408;9.968;2023-04-20T02:47:26;19.60;78.50
28071;DHT22;15383;48.408;9.968;2023-04-20T02:49:51;19.60;78.40
28071;DHT22;15383;48.408;9.968;2023-04-20T02:52:17;19.60;78.40
28071;DHT22;15383;48.408;9.968;2023-04-20T02:54:43;19.60;78.50
28071;DHT22;15383;48.408;9.968;2023-04-20T02:57:08;19.60;78.50
28071;DHT22;15383;48.408;9.968;2023-04-20T02:59:36;19.60;78.50
28071;DHT22;15383;48.408;9.968;2023-04-20T03:02:02;19.60;78.50
28071;DHT22;15383;48.408;9.968;2023-04-20T03:04:27;19.60;78.50
28071;DHT22;15383;48.408;9.968;2023-04-20T03:06:53;19.60;78.50
28071;DHT22;15383;48.408;9.968;2023-04-20T03:09:18;19.60;78.50
28071;DHT22;15383;48.408;9.968;2023-04-20T03:11:44;19.60;78.50
28071;DHT22;15383;48.408;9.968;2023-04-20T03:14:10;19.60;78.50
28071;DHT22;15383;48.408;9.968;2023-04-20T03:16:36;19.60;78.60
28071;DHT22;15383;48.408;9.968;2023-04-20T03:19:01;19.50;78.50
28071;DHT22;15383;48.408;9.968;2023-04-20T03:21:28;19.60;78.50
28071;DHT22;15383;48.408;9.968;2023-04-20T03:23:54;19.50;78.50
28071;DHT22;15383;48.408;9.968;2023-04-20T03:26:19;19.50;78.50
28071;DHT22;15383;48.408;9.968;2023-04-20T03:28:45;19.50;78.50
28071;DHT22;15383;48.408;9.968;2023-04-20T03:31:11;19.50;78.50
28071;DHT22;15383;48.408;9.968;2023-04-20T03:33:36;19.50;78.50
28071;DHT22;15383;48.408;9.968;2023-04-20T03:36:02;19.50;78.50
28071;DHT22;15383;48.408;9.968;2023-04-20T03:38:30;19.50;78.50
28071;DHT22;15383;48.408;9.968;2023-04-20T03:40:55;19.50;78.50
28071;DHT22;15383;48.408;9.968;2023-04-20T03:43:21;19.50;78.30
28071;DHT22;15383;48.408;9.968;2023-04-20T03:45:46;19.60;78.40
28071;DHT22;15383;48.408;9.968;2023-04-20T03:48:12;19.60;78.40
28071;DHT22;15383;48.408;9.968;2023-04-20T03:50:37;19.70;78.30
28071;DHT22;15383;48.408;9.968;2023-04-20T03:53:03;19.70;78.20
28071;DHT22;15383;48.408;9.968;2023-04-20T03:55:28;19.80;78.20
28071;DHT22;15383;48.408;9.968;2023-04-20T03:57:54;19.80;78.20
28071;DHT22;15383;48.408;9.968;2023-04-20T04:00:19;19.90;78.10
28071;DHT22;15383;48.408;9.968;2023-04-20T04:02:45;19.90;78.10
28071;DHT22;15383;48.408;9.968;2023-04-20T04:05:11;19.90;78.00
28071;DHT22;15383;48.408;9.968;2023-04-20T04:07:36;20.00;78.10
28071;DHT22;15383;48.408;9.968;2023-04-20T04:10:02;19.90;78.00
28071;DHT22;15383;48.408;9.968;2023-04-20T04:12:30;20.00;78.80
28071;DHT22;15383;48.408;9.968;2023-04-20T04:14:55;20.00;78.00
28071;DHT22;15383;48.408;9.968;2023-04-20T04:17:21;20.00;78.00
28071;DHT22;15383;48.408;9.968;2023-04-20T04:19:46;20.10;78.10
28071;DHT22;15383;48.408;9.968;2023-04-20T04:22:12;20.00;78.00
28071;DHT22;15383;48.408;9.968;2023-04-20T04:24:37;20.10;78.00
28071;DHT22;15383;48.408;9.968;2023-04-20T04:27:03;20.10;77.90
28071;DHT22;15383;48.408;9.968;2023-04-20T04:29:32;20.20;78.00
28071;DHT22;15383;48.408;9.968;2023-04-20T04:32:03;20.20;78.00
28071;DHT22;15383;48.408;9.968;2023-04-20T04:34:32;20.20;77.90
28071;DHT22;15383;48.408;9.968;2023-04-20T04:36:59;20.30;78.20
28071;DHT22;15383;48.408;9.968;2023-04-20T04:39:26;20.40;78.40
28071;DHT22;15383;48.408;9.968;2023-04-20T04:41:52;20.40;78.30
28071;DHT22;15383;48.408;9.968;2023-04-20T04:44:17;20.30;78.30
28071;DHT22;15383;48.408;9.968;2023-04-20T04:46:43;20.30;78.30
28071;DHT22;15383;48.408;9.968;2023-04-20T04:49:10;20.30;78.20
28071;DHT22;15383;48.408;9.968;2023-04-20T04:51:35;20.30;78.30
28071;DHT22;15383;48.408;9.968;2023-04-20T04:54:01;20.30;78.20
28071;DHT22;15383;48.408;9.968;2023-04-20T04:56:27;20.30;78.20
28071;DHT22;15383;48.408;9.968;2023-04-20T04:58:53;20.30;78.30
28071;DHT22;15383;48.408;9.968;2023-04-20T05:01:18;20.30;78.30
28071;DHT22;15383;48.408;9.968;2023-04-20T05:03:44;20.30;78.40
28071;DHT22;15383;48.408;9.968;2023-04-20T05:06:09;20.40;78.40
28071;DHT22;15383;48.408;9.968;2023-04-20T05:08:35;20.40;78.40
28071;DHT22;15383;48.408;9.968;2023-04-20T05:11:01;20.40;78.40
28071;DHT22;15383;48.408;9.968;2023-04-20T05:13:26;20.50;79.10
28071;DHT22;15383;48.408;9.968;2023-04-20T05:15:52;20.50;78.30
28071;DHT22;15383;48.408;9.968;2023-04-20T05:18:17;20.50;78.30
28071;DHT22;15383;48.408;9.968;2023-04-20T05:20:43;20.50;78.30
28071;DHT22;15383;48.408;9.968;2023-04-20T05:23:08;20.50;78.20
28071;DHT22;15383;48.408;9.968;2023-04-20T05:25:34;20.50;78.20
28071;DHT22;15383;48.408;9.968;2023-04-20T05:27:59;20.50;78.00
28071;DHT22;15383;48.408;9.968;2023-04-20T05:30:25;20.50;78.20
28071;DHT22;15383;48.408;9.968;2023-04-20T05:32:51;20.50;78.40
28071;DHT22;15383;48.408;9.968;2023-04-20T05:35:16;20.60;78.50
28071;DHT22;15383;48.408;9.968;2023-04-20T05:37:42;20.50;78.50
28071;DHT22;15383;48.408;9.968;2023-04-20T05:40:08;20.50;78.50
28071;DHT22;15383;48.408;9.968;2023-04-20T05:42:34;20.60;78.60
28071;DHT22;15383;48.408;9.968;2023-04-20T05:44:59;20.50;78.50
28071;DHT22;15383;48.408;9.968;2023-04-20T05:47:25;20.60;78.70
28071;DHT22;15383;48.408;9.968;2023-04-20T05:49:52;20.60;78.70
28071;DHT22;15383;48.408;9.968;2023-04-20T05:52:18;20.60;79.60
28071;DHT22;15383;48.408;9.968;2023-04-20T05:54:43;20.60;79.10
28071;DHT22;15383;48.408;9.968;2023-04-20T05:57:09;20.60;78.90
28071;DHT22;15383;48.408;9.968;2023-04-20T05:59:35;20.70;79.30
28071;DHT22;15383;48.408;9.968;2023-04-20T06:02:01;20.90;78.60
28071;DHT22;15383;48.408;9.968;2023-04-20T06:04:26;21.10;79.20
28071;DHT22;15383;48.408;9.968;2023-04-20T06:06:52;21.30;78.40
28071;DHT22;15383;48.408;9.968;2023-04-20T06:09:18;21.30;78.00
28071;DHT22;15383;48.408;9.968;2023-04-20T06:11:43;21.40;77.90
28071;DHT22;15383;48.408;9.968;2023-04-20T06:14:09;21.40;77.80
28071;DHT22;15383;48.408;9.968;2023-04-20T06:16:36;21.40;77.50
28071;DHT22;15383;48.408;9.968;2023-04-20T06:19:02;21.30;77.00
28071;DHT22;15383;48.408;9.968;2023-04-20T06:21:28;21.30;76.70
28071;DHT22;15383;48.408;9.968;2023-04-20T06:23:53;21.30;76.60
28071;DHT22;15383;48.408;9.968;2023-04-20T06:26:19;21.40;76.40
28071;DHT22;15383;48.408;9.968;2023-04-20T06:28:44;21.40;77.50
28071;DHT22;15383;48.408;9.968;2023-04-20T06:31:11;21.60;77.10
28071;DHT22;15383;48.408;9.968;2023-04-20T06:33:37;21.70;76.10
28071;DHT22;15383;48.408;9.968;2023-04-20T06:36:05;21.80;76.50
28071;DHT22;15383;48.408;9.968;2023-04-20T06:38:31;21.80;75.70
28071;DHT22;15383;48.408;9.968;2023-04-20T06:40:56;22.00;75.90
28071;DHT22;15383;48.408;9.968;2023-04-20T06:43:26;22.00;75.90
28071;DHT22;15383;48.408;9.968;2023-04-20T06:45:51;22.10;75.70
28071;DHT22;15383;48.408;9.968;2023-04-20T06:48:17;22.10;75.40
28071;DHT22;15383;48.408;9.968;2023-04-20T06:50:42;22.20;75.40
28071;DHT22;15383;48.408;9.968;2023-04-20T06:53:08;22.20;75.30
28071;DHT22;15383;48.408;9.968;2023-04-20T06:55:33;22.20;76.20
28071;DHT22;15383;48.408;9.968;2023-04-20T06:57:59;22.20;75.50
28071;DHT22;15383;48.408;9.968;2023-04-20T07:00:24;22.30;75.20
28071;DHT22;15383;48.408;9.968;2023-04-20T07:02:52;22.30;75.00
28071;DHT22;15383;48.408;9.968;2023-04-20T07:05:18;22.30;75.20
28071;DHT22;15383;48.408;9.968;2023-04-20T07:07:44;22.30;75.30
28071;DHT22;15383;48.408;9.968;2023-04-20T07:10:12;22.30;75.20
28071;DHT22;15383;48.408;9.968;2023-04-20T07:12:39;22.30;75.40
28071;DHT22;15383;48.408;9.968;2023-04-20T07:15:06;22.20;75.30
28071;DHT22;15383;48.408;9.968;2023-04-20T07:17:33;22.20;75.20
28071;DHT22;15383;48.408;9.968;2023-04-20T07:19:59;22.10;74.90
28071;DHT22;15383;48.408;9.968;2023-04-20T07:22:32;22.00;74.90
28071;DHT22;15383;48.408;9.968;2023-04-20T07:24:59;22.00;76.70
28071;DHT22;15383;48.408;9.968;2023-04-20T07:27:25;22.10;75.10
28071;DHT22;15383;48.408;9.968;2023-04-20T07:29:52;22.00;74.50
28071;DHT22;15383;48.408;9.968;2023-04-20T07:32:17;22.00;74.30
28071;DHT22;15383;48.408;9.968;2023-04-20T07:34:43;22.00;74.10
28071;DHT22;15383;48.408;9.968;2023-04-20T07:37:08;22.00;74.20
28071;DHT22;15383;48.408;9.968;2023-04-20T07:39:34;22.00;74.20
28071;DHT22;15383;48.408;9.968;2023-04-20T07:42:01;22.00;74.20
28071;DHT22;15383;48.408;9.968;2023-04-20T07:44:27;22.00;74.30
28071;DHT22;15383;48.408;9.968;2023-04-20T07:46:53;22.00;73.90
28071;DHT22;15383;48.408;9.968;2023-04-20T07:49:19;22.10;75.00
28071;DHT22;15383;48.408;9.968;2023-04-20T07:51:45;21.90;74.20
28071;DHT22;15383;48.408;9.968;2023-04-20T07:54:11;21.80;74.30
28071;DHT22;15383;48.408;9.968;2023-04-20T07:56:36;21.70;74.40
28071;DHT22;15383;48.408;9.968;2023-04-20T07:59:02;21.60;74.60
28071;DHT22;15383;48.408;9.968;2023-04-20T08:01:27;21.50;74.80
28071;DHT22;15383;48.408;9.968;2023-04-20T08:03:53;21.50;74.90
28071;DHT22;15383;48.408;9.968;2023-04-20T08:06:20;21.40;74.90
28071;DHT22;15383;48.408;9.968;2023-04-20T08:08:46;21.50;75.00
28071;DHT22;15383;48.408;9.968;2023-04-20T08:11:11;21.50;74.90
28071;DHT22;15383;48.408;9.968;2023-04-20T08:13:37;21.50;74.70
28071;DHT22;15383;48.408;9.968;2023-04-20T08:16:03;21.50;74.50
28071;DHT22;15383;48.408;9.968;2023-04-20T08:18:29;21.50;74.90
28071;DHT22;15383;48.408;9.968;2023-04-20T08:20:55;21.50;74.60
28071;DHT22;15383;48.408;9.968;2023-04-20T08:23:20;21.40;74.80
28071;DHT22;15383;48.408;9.968;2023-04-20T08:25:55;21.40;74.80
28071;DHT22;15383;48.408;9.968;2023-04-20T08:28:22;21.30;75.00
28071;DHT22;15383;48.408;9.968;2023-04-20T08:30:47;21.20;75.80
28071;DHT22;15383;48.408;9.968;2023-04-20T08:33:13;21.30;75.60
28071;DHT22;15383;48.408;9.968;2023-04-20T08:35:39;21.30;75.70
28071;DHT22;15383;48.408;9.968;2023-04-20T08:38:04;21.20;75.80
28071;DHT22;15383;48.408;9.968;2023-04-20T08:40:31;21.20;75.70
28071;DHT22;15383;48.408;9.968;2023-04-20T08:42:57;21.10;75.60
28071;DHT22;15383;48.408;9.968;2023-04-20T08:45:24;21.10;76.00
28071;DHT22;15383;48.408;9.968;2023-04-20T08:47:51;21.20;75.80
28071;DHT22;15383;48.408;9.968;2023-04-20T08:50:18;21.20;75.60
28071;DHT22;15383;48.408;9.968;2023-04-20T08:52:44;21.20;75.40
28071;DHT22;15383;48.408;9.968;2023-04-20T08:55:13;21.20;75.40
28071;DHT22;15383;48.408;9.968;2023-04-20T08:57:39;21.20;75.50
28071;DHT22;15383;48.408;9.968;2023-04-20T09:00:06;21.10;75.70
28071;DHT22;15383;48.408;9.968;2023-04-20T09:02:32;21.10;76.70
28071;DHT22;15383;48.408;9.968;2023-04-20T09:05:02;21.20;76.20
28071;DHT22;15383;48.408;9.968;2023-04-20T09:07:29;21.10;75.90
28071;DHT22;15383;48.408;9.968;2023-04-20T09:09:59;21.10;75.80
28071;DHT22;15383;48.408;9.968;2023-04-20T09:12:26;21.00;75.80
28071;DHT22;15383;48.408;9.968;2023-04-20T09:14:52;21.00;75.80
28071;DHT22;15383;48.408;9.968;2023-04-20T09:17:38;21.00;75.90
28071;DHT22;15383;48.408;9.968;2023-04-20T09:20:05;21.10;76.10
28071;DHT22;15383;48.408;9.968;2023-04-20T09:22:33;21.10;75.70
28071;DHT22;15383;48.408;9.968;2023-04-20T09:24:59;21.10;75.80
28071;DHT22;15383;48.408;9.968;2023-04-20T09:27:26;21.00;75.70
28071;DHT22;15383;48.408;9.968;2023-04-20T09:29:59;21.00;75.90
28071;DHT22;15383;48.408;9.968;2023-04-20T09:32:26;21.00;76.10
28071;DHT22;15383;48.408;9.968;2023-04-20T09:34:55;21.10;76.40
28071;DHT22;15383;48.408;9.968;2023-04-20T09:37:21;21.10;76.00
28071;DHT22;15383;48.408;9.968;2023-04-20T09:39:50;21.10;76.00
28071;DHT22;15383;48.408;9.968;2023-04-20T09:42:15;21.10;76.00
28071;DHT22;15383;48.408;9.968;2023-04-20T09:44:42;21.20;76.20
28071;DHT22;15383;48.408;9.968;2023-04-20T09:47:08;21.20;76.10
28071;DHT22;15383;48.408;9.968;2023-04-20T09:49:34;21.20;75.90
28071;DHT22;15383;48.408;9.968;2023-04-20T09:52:03;21.10;75.70
28071;DHT22;15383;48.408;9.968;2023-04-20T09:54:29;21.30;75.90
28071;DHT22;15383;48.408;9.968;2023-04-20T09:56:58;21.50;75.70
28071;DHT22;15383;48.408;9.968;2023-04-20T09:59:23;21.60;75.50
28071;DHT22;15383;48.408;9.968;2023-04-20T10:01:50;21.80;75.30
28071;DHT22;15383;48.408;9.968;2023-04-20T10:04:16;21.90;75.20
28071;DHT22;15383;48.408;9.968;2023-04-20T10:06:53;22.00;75.30
28071;DHT22;15383;48.408;9.968;2023-04-20T10:09:21;22.00;75.10
28071;DHT22;15383;48.408;9.968;2023-04-20T10:11:47;22.10;75.00
28071;DHT22;15383;48.408;9.968;2023-04-20T10:16:41;22.20;75.50
28071;DHT22;15383;48.408;9.968;2023-04-20T10:19:07;22.20;74.80
28071;DHT22;15383;48.408;9.968;2023-04-20T10:21:47;22.40;74.50
28071;DHT22;15383;48.408;9.968;2023-04-20T10:24:13;22.10;73.10
28071;DHT22;15383;48.408;9.968;2023-04-20T10:26:43;21.90;73.60
28071;DHT22;15383;48.408;9.968;2023-04-20T10:29:25;21.80;74.10
28071;DHT22;15383;48.408;9.968;2023-04-20T10:31:51;21.90;74.00
28071;DHT22;15383;48.408;9.968;2023-04-20T10:34:30;22.00;73.60
28071;DHT22;15383;48.408;9.968;2023-04-20T10:37:09;22.00;73.50
28071;DHT22;15383;48.408;9.968;2023-04-20T10:39:36;22.00;73.30
28071;DHT22;15383;48.408;9.968;2023-04-20T10:42:08;22.10;73.40
28071;DHT22;15383;48.408;9.968;2023-04-20T10:44:34;22.10;73.30
28071;DHT22;15383;48.408;9.968;2023-04-20T10:47:00;22.10;73.30
28071;DHT22;15383;48.408;9.968;2023-04-20T10:49:26;22.10;73.20
28071;DHT22;15383;48.408;9.968;2023-04-20T10:51:54;22.20;73.30
28071;DHT22;15383;48.408;9.968;2023-04-20T10:54:20;22.20;73.30
28071;DHT22;15383;48.408;9.968;2023-04-20T10:56:48;22.20;73.20
28071;DHT22;15383;48.408;9.968;2023-04-20T10:59:16;22.10;73.20
28071;DHT22;15383;48.408;9.968;2023-04-20T11:01:43;22.10;73.20
28071;DHT22;15383;48.408;9.968;2023-04-20T11:04:10;22.10;73.30
28071;DHT22;15383;48.408;9.968;2023-04-20T11:06:37;22.10;73.30
28071;DHT22;15383;48.408;9.968;2023-04-20T11:09:14;22.10;73.50
28071;DHT22;15383;48.408;9.968;2023-04-20T11:11:41;22.10;73.50
28071;DHT22;15383;48.408;9.968;2023-04-20T11:14:08;22.10;73.50
28071;DHT22;15383;48.408;9.968;2023-04-20T11:16:34;22.10;73.60
28071;DHT22;15383;48.408;9.968;2023-04-20T11:19:00;22.10;73.50
28071;DHT22;15383;48.408;9.968;2023-04-20T11:21:54;22.10;73.50
28071;DHT22;15383;48.408;9.968;2023-04-20T11:24:21;22.10;73.50
28071;DHT22;15383;48.408;9.968;2023-04-20T11:26:48;22.10;73.50
28071;DHT22;15383;48.408;9.968;2023-04-20T11:29:35;22.20;73.60
28071;DHT22;15383;48.408;9.968;2023-04-20T11:32:08;22.10;73.50
28071;DHT22;15383;48.408;9.968;2023-04-20T11:34:35;22.10;73.50
28071;DHT22;15383;48.408;9.968;2023-04-20T11:37:09;22.10;73.50
28071;DHT22;15383;48.408;9.968;2023-04-20T11:39:37;22.10;73.50
28071;DHT22;15383;48.408;9.968;2023-04-20T11:42:03;22.10;73.50
28071;DHT22;15383;48.408;9.968;2023-04-20T11:44:29;22.10;73.60
28071;DHT22;15383;48.408;9.968;2023-04-20T11:46:55;22.10;73.50
28071;DHT22;15383;48.408;9.968;2023-04-20T11:49:22;22.20;73.70
28071;DHT22;15383;48.408;9.968;2023-04-20T11:51:49;22.10;73.70
28071;DHT22;15383;48.408;9.968;2023-04-20T11:54:15;22.10;73.70
28071;DHT22;15383;48.408;9.968;2023-04-20T11:56:43;22.10;73.80
28071;DHT22;15383;48.408;9.968;2023-04-20T11:59:10;22.10;73.70
28071;DHT22;15383;48.408;9.968;2023-04-20T12:01:36;22.10;73.70
28071;DHT22;15383;48.408;9.968;2023-04-20T12:04:02;22.10;73.70
28071;DHT22;15383;48.408;9.968;2023-04-20T12:06:29;22.10;73.70
28071;DHT22;15383;48.408;9.968;2023-04-20T12:08:56;22.10;73.70
28071;DHT22;15383;48.408;9.968;2023-04-20T12:11:22;22.10;73.50
28071;DHT22;15383;48.408;9.968;2023-04-20T12:13:47;22.10;73.50
28071;DHT22;15383;48.408;9.968;2023-04-20T12:16:13;22.20;73.70
28071;DHT22;15383;48.408;9.968;2023-04-20T12:18:39;22.20;73.60
28071;DHT22;15383;48.408;9.968;2023-04-20T12:21:04;22.20;73.70
28071;DHT22;15383;48.408;9.968;2023-04-20T12:23:30;22.20;73.60
28071;DHT22;15383;48.408;9.968;2023-04-20T12:25:57;22.20;73.60
28071;DHT22;15383;48.408;9.968;2023-04-20T12:28:23;22.20;73.70
28071;DHT22;15383;48.408;9.968;2023-04-20T12:30:48;22.20;73.70
28071;DHT22;15383;48.408;9.968;2023-04-20T12:33:14;22.20;73.60
28071;DHT22;15383;48.408;9.968;2023-04-20T12:35:39;22.20;73.60
28071;DHT22;15383;48.408;9.968;2023-04-20T12:38:05;22.20;73.60
28071;DHT22;15383;48.408;9.968;2023-04-20T12:40:31;22.20;73.70
28071;DHT22;15383;48.408;9.968;2023-04-20T12:42:56;22.20;74.40
28071;DHT22;15383;48.408;9.968;2023-04-20T12:45:22;22.20;73.60
28071;DHT22;15383;48.408;9.968;2023-04-20T12:47:47;22.20;73.60
28071;DHT22;15383;48.408;9.968;2023-04-20T12:50:13;22.20;73.60
28071;DHT22;15383;48.408;9.968;2023-04-20T12:52:38;22.20;73.60
28071;DHT22;15383;48.408;9.968;2023-04-20T12:55:07;22.20;73.70
28071;DHT22;15383;48.408;9.968;2023-04-20T12:57:33;22.20;73.60
28071;DHT22;15383;48.408;9.968;2023-04-20T12:59:59;22.20;73.60
28071;DHT22;15383;48.408;9.968;2023-04-20T13:02:27;22.20;73.60
28071;DHT22;15383;48.408;9.968;2023-04-20T13:04:52;22.20;73.50
28071;DHT22;15383;48.408;9.968;2023-04-20T13:07:18;22.20;73.50
28071;DHT22;15383;48.408;9.968;2023-04-20T13:09:43;22.20;73.40
28071;DHT22;15383;48.408;9.968;2023-04-20T13:12:09;22.20;73.40
28071;DHT22;15383;48.408;9.968;2023-04-20T13:14:34;22.20;73.40
28071;DHT22;15383;48.408;9.968;2023-04-20T13:17:00;22.20;73.40
28071;DHT22;15383;48.408;9.968;2023-04-20T13:19:28;22.30;73.50
28071;DHT22;15383;48.408;9.968;2023-04-20T13:21:53;22.30;73.40
28071;DHT22;15383;48.408;9.968;2023-04-20T13:24:19;22.30;73.40
28071;DHT22;15383;48.408;9.968;2023-04-20T13:26:45;22.30;73.40
28071;DHT22;15383;48.408;9.968;2023-04-20T13:29:10;22.30;73.40
28071;DHT22;15383;48.408;9.968;2023-04-20T13:31:36;22.20;73.30
28071;DHT22;15383;48.408;9.968;2023-04-20T13:34:02;22.20;73.30
28071;DHT22;15383;48.408;9.968;2023-04-20T13:36:27;22.40;74.70
28071;DHT22;15383;48.408;9.968;2023-04-20T13:38:53;22.70;73.60
28071;DHT22;15383;48.408;9.968;2023-04-20T13:41:20;22.90;73.00
28071;DHT22;15383;48.408;9.968;2023-04-20T13:43:48;23.00;72.50
28071;DHT22;15383;48.408;9.968;2023-04-20T13:46:14;23.00;73.20
28071;DHT22;15383;48.408;9.968;2023-04-20T13:48:40;23.10;72.20
28071;DHT22;15383;48.408;9.968;2023-04-20T13:51:06;23.10;72.70
28071;DHT22;15383;48.408;9.968;2023-04-20T13:53:31;23.20;73.00
28071;DHT22;15383;48.408;9.968;2023-04-20T13:55:57;23.30;72.70
28071;DHT22;15383;48.408;9.968;2023-04-20T13:58:23;23.30;71.90
28071;DHT22;15383;48.408;9.968;2023-04-20T14:00:48;23.40;71.80
28071;DHT22;15383;48.408;9.968;2023-04-20T14:03:14;23.30;71.50
28071;DHT22;15383;48.408;9.968;2023-04-20T14:05:42;23.30;71.70
28071;DHT22;15383;48.408;9.968;2023-04-20T14:08:09;23.20;71.90
28071;DHT22;15383;48.408;9.968;2023-04-20T14:10:34;23.10;72.10
28071;DHT22;15383;48.408;9.968;2023-04-20T14:13:00;23.20;72.00
28071;DHT22;15383;48.408;9.968;2023-04-20T14:15:26;23.30;72.10
28071;DHT22;15383;48.408;9.968;2023-04-20T14:17:52;23.30;71.80
28071;DHT22;15383;48.408;9.968;2023-04-20T14:20:17;23.30;73.20
28071;DHT22;15383;48.408;9.968;2023-04-20T14:22:43;23.30;72.20
28071;DHT22;15383;48.408;9.968;2023-04-20T14:25:09;23.30;72.00
28071;DHT22;15383;48.408;9.968;2023-04-20T14:27:35;23.30;72.30
28071;DHT22;15383;48.408;9.968;2023-04-20T14:30:01;23.30;72.00
28071;DHT22;15383;48.408;9.968;2023-04-20T14:32:28;23.30;71.60
28071;DHT22;15383;48.408;9.968;2023-04-20T14:34:54;23.20;71.60
28071;DHT22;15383;48.408;9.968;2023-04-20T14:37:19;23.20;71.70
28071;DHT22;15383;48.408;9.968;2023-04-20T14:39:45;23.10;71.80
28071;DHT22;15383;48.408;9.968;2023-04-20T14:42:10;23.10;71.80
28071;DHT22;15383;48.408;9.968;2023-04-20T14:44:37;23.00;71.80
28071;DHT22;15383;48.408;9.968;2023-04-20T14:47:02;23.00;71.90
28071;DHT22;15383;48.408;9.968;2023-04-20T14:49:28;23.00;72.00
28071;DHT22;15383;48.408;9.968;2023-04-20T14:51:53;23.00;72.00
28071;DHT22;15383;48.408;9.968;2023-04-20T14:54:19;22.90;71.90
28071;DHT22;15383;48.408;9.968;2023-04-20T14:56:45;22.90;71.90
28071;DHT22;15383;48.408;9.968;2023-04-20T14:59:10;22.90;72.00
28071;DHT22;15383;48.408;9.968;2023-04-20T15:01:36;22.90;72.00
28071;DHT22;15383;48.408;9.968;2023-04-20T15:04:01;22.90;72.10
28071;DHT22;15383;48.408;9.968;2023-04-20T15:06:27;22.90;72.10
28071;DHT22;15383;48.408;9.968;2023-04-20T15:08:53;22.90;72.20
28071;DHT22;15383;48.408;9.968;2023-04-20T15:11:19;22.90;72.20
28071;DHT22;15383;48.408;9.968;2023-04-20T15:13:45;22.80;69.90
28071;DHT22;15383;48.408;9.968;2023-04-20T15:16:11;22.60;70.90
28071;DHT22;15383;48.408;9.968;2023-04-20T15:18:36;22.60;71.10
28071;DHT22;15383;48.408;9.968;2023-04-20T15:21:02;22.70;71.40
28071;DHT22;15383;48.408;9.968;2023-04-20T15:23:28;22.70;71.40
28071;DHT22;15383;48.408;9.968;2023-04-20T15:25:53;22.70;71.60
28071;DHT22;15383;48.408;9.968;2023-04-20T15:28:19;22.70;71.60